createdAt,value
2018-12-30T00:00:59.384Z,5.07
2018-12-30T00:01:59.355Z,5.12
2018-12-30T00:02:59.380Z,5.21
2018-12-30T00:03:59.343Z,5.21
2018-12-30T00:04:59.323Z,5.15
2018-12-30T00:05:59.324Z,5.31
2018-12-30T00:06:59.330Z,5.27
2018-12-30T00:07:59.284Z,5.31
2018-12-30T00:08:59.294Z,5.17
2018-12-30T00:09:59.282Z,5.21
2018-12-30T00:10:59.262Z,5.21
2018-12-30T00:11:59.273Z,5.20
2018-12-30T00:12:59.273Z,5.15
2018-12-30T00:13:59.222Z,5.24
2018-12-30T00:14:59.208Z,5.20
2018-12-30T00:15:59.205Z,5.18
2018-12-30T00:16:59.193Z,5.18
2018-12-30T00:17:59.230Z,5.17
2018-12-30T00:18:59.172Z,5.20
2018-12-30T00:19:59.158Z,5.22
2018-12-30T00:20:59.149Z,5.27
2018-12-30T00:21:59.134Z,5.17
2018-12-30T00:22:59.155Z,5.31
2018-12-30T00:23:59.138Z,5.18
2018-12-30T00:24:59.116Z,5.22
2018-12-30T00:25:59.102Z,5.30
2018-12-30T00:26:59.086Z,5.30
2018-12-30T00:27:59.074Z,5.36
2018-12-30T00:28:59.073Z,5.38
2018-12-30T00:29:59.059Z,5.25
2018-12-30T00:30:59.033Z,5.43
2018-12-30T00:31:59.025Z,5.35
2018-12-30T00:32:59.008Z,5.35
2018-12-30T00:33:59.021Z,5.31
2018-12-30T00:34:58.989Z,5.38
2018-12-30T00:35:58.982Z,5.36
2018-12-30T00:36:58.987Z,5.38
2018-12-30T00:37:58.957Z,5.39
2018-12-30T00:38:58.973Z,5.38
2018-12-30T00:39:58.940Z,5.42
2018-12-30T00:40:58.917Z,5.39
2018-12-30T00:41:58.913Z,5.45
2018-12-30T00:42:58.909Z,5.40
2018-12-30T00:43:58.913Z,5.43
2018-12-30T00:44:58.922Z,5.46
2018-12-30T00:45:58.866Z,5.48
2018-12-30T00:46:58.850Z,5.46
2018-12-30T00:47:58.860Z,5.57
2018-12-30T00:48:58.848Z,5.56
2018-12-30T00:49:58.818Z,5.53
2018-12-30T00:50:58.811Z,5.58
2018-12-30T00:51:58.800Z,5.53
2018-12-30T00:52:58.784Z,5.58
2018-12-30T00:53:58.794Z,5.65
2018-12-30T00:54:58.775Z,5.65
2018-12-30T00:55:58.748Z,5.65
2018-12-30T00:56:58.756Z,5.64
2018-12-30T00:57:58.745Z,5.58
2018-12-30T00:58:58.747Z,5.67
2018-12-30T00:59:58.715Z,5.76
2018-12-30T01:00:58.691Z,5.61
2018-12-30T01:01:58.690Z,5.68
2018-12-30T01:02:58.683Z,5.74
2018-12-30T01:03:58.668Z,5.72
2018-12-30T01:04:58.669Z,5.78
2018-12-30T01:05:58.637Z,5.79
2018-12-30T01:06:58.630Z,5.78
2018-12-30T01:07:58.626Z,5.86
2018-12-30T01:08:58.603Z,5.83
2018-12-30T01:09:58.617Z,5.86
2018-12-30T01:10:58.589Z,5.89
2018-12-30T01:11:58.599Z,5.81
2018-12-30T01:12:58.856Z,5.93
2018-12-30T01:13:58.548Z,5.91
2018-12-30T01:14:58.561Z,5.83
2018-12-30T01:15:58.547Z,5.90
2018-12-30T01:16:58.519Z,5.93
2018-12-30T01:17:58.508Z,5.99
2018-12-30T01:18:58.492Z,6.03
2018-12-30T01:19:58.507Z,5.94
2018-12-30T01:20:58.488Z,6.04
2018-12-30T01:21:58.456Z,5.99
2018-12-30T01:22:58.445Z,6.08
2018-12-30T01:23:58.443Z,6.04
2018-12-30T01:24:58.477Z,6.14
2018-12-30T01:25:58.415Z,6.09
2018-12-30T01:26:58.409Z,6.01
2018-12-30T01:27:58.394Z,6.09
2018-12-30T01:28:58.466Z,6.19
2018-12-30T01:29:58.369Z,6.12
2018-12-30T01:30:58.382Z,6.25
2018-12-30T01:31:58.347Z,6.14
2018-12-30T01:32:58.339Z,6.11
2018-12-30T01:33:58.324Z,6.22
2018-12-30T01:34:58.343Z,6.28
2018-12-30T01:35:58.326Z,6.31
2018-12-30T01:36:58.298Z,6.34
2018-12-30T01:37:58.279Z,6.36
2018-12-30T01:38:58.263Z,6.31
2018-12-30T01:39:58.251Z,6.37
2018-12-30T01:40:58.257Z,6.36
2018-12-30T01:41:58.246Z,6.34
2018-12-30T01:42:58.222Z,6.37
2018-12-30T01:43:58.206Z,6.46
2018-12-30T01:44:58.200Z,6.49
2018-12-30T01:45:58.220Z,6.62
2018-12-30T01:46:58.189Z,6.55
2018-12-30T01:47:58.165Z,6.55
2018-12-30T01:48:58.154Z,6.67
2018-12-30T01:49:58.155Z,6.67
2018-12-30T01:50:58.134Z,6.62
2018-12-30T01:51:58.340Z,6.61
2018-12-30T01:52:58.114Z,6.70
2018-12-30T01:53:58.106Z,6.69
2018-12-30T01:54:58.096Z,6.69
2018-12-30T01:55:58.077Z,6.70
2018-12-30T01:56:58.087Z,6.81
2018-12-30T01:57:58.061Z,6.76
2018-12-30T01:58:58.040Z,6.77
2018-12-30T01:59:58.027Z,6.79
2018-12-30T02:00:58.025Z,6.87
2018-12-30T02:01:58.037Z,6.80
2018-12-30T02:02:58.001Z,6.89
2018-12-30T02:03:57.986Z,6.85
2018-12-30T02:04:57.975Z,6.84
2018-12-30T02:05:57.962Z,6.95
2018-12-30T02:06:57.979Z,6.97
2018-12-30T02:07:57.940Z,6.94
2018-12-30T02:08:57.933Z,6.95
2018-12-30T02:09:57.917Z,7.03
2018-12-30T02:10:57.914Z,6.97
2018-12-30T02:11:57.896Z,6.99
2018-12-30T02:12:57.904Z,7.03
2018-12-30T02:13:57.877Z,7.02
2018-12-30T02:14:57.869Z,6.99
2018-12-30T02:15:57.850Z,7.02
2018-12-30T02:16:57.859Z,6.98
2018-12-30T02:17:57.860Z,7.05
2018-12-30T02:18:57.824Z,7.02
2018-12-30T02:19:57.810Z,7.13
2018-12-30T02:20:57.795Z,7.03
2018-12-30T02:21:57.790Z,7.05
2018-12-30T02:22:57.806Z,7.06
2018-12-30T02:23:57.762Z,7.09
2018-12-30T02:24:57.751Z,7.09
2018-12-30T02:25:57.755Z,7.09
2018-12-30T02:26:57.727Z,7.05
2018-12-30T02:27:57.719Z,7.15
2018-12-30T02:28:57.727Z,7.07
2018-12-30T02:29:57.703Z,7.12
2018-12-30T02:30:57.691Z,7.09
2018-12-30T02:31:57.671Z,7.10
2018-12-30T02:32:57.660Z,7.07
2018-12-30T02:33:57.676Z,7.06
2018-12-30T02:34:57.642Z,7.10
2018-12-30T02:35:57.629Z,7.06
2018-12-30T02:36:57.621Z,7.15
2018-12-30T02:37:57.606Z,7.10
2018-12-30T02:38:57.613Z,7.17
2018-12-30T02:39:57.583Z,7.17
2018-12-30T02:40:57.580Z,7.20
2018-12-30T02:41:57.579Z,7.23
2018-12-30T02:42:57.554Z,7.23
2018-12-30T02:43:57.624Z,7.24
2018-12-30T02:44:57.536Z,7.16
2018-12-30T02:45:57.518Z,7.17
2018-12-30T02:46:57.504Z,7.21
2018-12-30T02:47:57.509Z,7.24
2018-12-30T02:48:57.516Z,7.06
2018-12-30T02:49:57.481Z,7.16
2018-12-30T02:50:57.467Z,7.23
2018-12-30T02:51:57.471Z,7.17
2018-12-30T02:52:57.464Z,7.15
2018-12-30T02:53:57.468Z,7.10
2018-12-30T02:54:57.437Z,7.16
2018-12-30T02:55:57.419Z,7.15
2018-12-30T02:56:57.399Z,7.16
2018-12-30T02:57:57.393Z,7.17
2018-12-30T02:58:57.371Z,7.17
2018-12-30T02:59:57.378Z,7.17
2018-12-30T03:00:57.355Z,7.17
2018-12-30T03:01:57.345Z,7.13
2018-12-30T03:02:57.329Z,7.07
2018-12-30T03:03:57.327Z,7.16
2018-12-30T03:04:57.330Z,7.13
2018-12-30T03:05:57.299Z,7.06
2018-12-30T03:06:57.285Z,7.03
2018-12-30T03:07:57.272Z,7.16
2018-12-30T03:08:57.304Z,7.09
2018-12-30T03:09:57.278Z,7.10
2018-12-30T03:10:57.289Z,7.09
2018-12-30T03:11:57.253Z,7.13
2018-12-30T03:12:57.223Z,7.05
2018-12-30T03:13:57.209Z,7.07
2018-12-30T03:14:57.240Z,7.12
2018-12-30T03:15:57.191Z,7.07
2018-12-30T03:16:57.179Z,7.09
2018-12-30T03:17:57.173Z,7.05
2018-12-30T03:18:57.179Z,7.09
2018-12-30T03:19:57.141Z,7.07
2018-12-30T03:20:57.158Z,7.13
2018-12-30T03:21:59.680Z,7.09
2018-12-30T03:22:57.114Z,7.09
2018-12-30T03:23:57.103Z,7.15
2018-12-30T03:24:57.087Z,7.06
2018-12-30T03:25:57.104Z,7.02
2018-12-30T03:26:57.066Z,7.02
2018-12-30T03:27:57.055Z,7.02
2018-12-30T03:28:57.048Z,7.12
2018-12-30T03:29:57.034Z,7.09
2018-12-30T03:30:57.049Z,7.15
2018-12-30T03:31:57.011Z,7.07
2018-12-30T03:32:57.023Z,7.06
2018-12-30T03:33:56.992Z,7.10
2018-12-30T03:34:56.978Z,7.09
2018-12-30T03:35:56.976Z,7.12
2018-12-30T03:36:56.975Z,7.15
2018-12-30T03:37:56.942Z,7.16
2018-12-30T03:38:56.938Z,7.07
2018-12-30T03:39:56.926Z,7.06
2018-12-30T03:40:56.910Z,7.06
2018-12-30T03:41:56.919Z,7.07
2018-12-30T03:42:56.890Z,7.03
2018-12-30T03:43:56.883Z,7.07
2018-12-30T03:44:56.951Z,7.07
2018-12-30T03:45:56.866Z,7.09
2018-12-30T03:46:56.891Z,7.06
2018-12-30T03:47:56.830Z,7.12
2018-12-30T03:48:56.826Z,7.07
2018-12-30T03:49:56.812Z,7.07
2018-12-30T03:50:56.819Z,7.06
2018-12-30T03:51:56.795Z,7.10
2018-12-30T03:52:56.804Z,7.02
2018-12-30T03:53:56.766Z,7.03
2018-12-30T03:54:56.753Z,7.05
2018-12-30T03:55:56.746Z,7.07
2018-12-30T03:56:56.738Z,7.16
2018-12-30T03:57:56.760Z,7.12
2018-12-30T03:58:56.709Z,7.05
2018-12-30T03:59:56.702Z,7.15
2018-12-30T04:00:56.690Z,7.10
2018-12-30T04:01:56.683Z,7.09
2018-12-30T04:02:56.705Z,7.09
2018-12-30T04:03:56.683Z,7.17
2018-12-30T04:04:56.643Z,7.06
2018-12-30T04:05:56.644Z,7.12
2018-12-30T04:06:56.623Z,7.10
2018-12-30T04:07:56.614Z,7.07
2018-12-30T04:08:56.621Z,7.07
2018-12-30T04:09:56.591Z,7.06
2018-12-30T04:10:56.598Z,7.06
2018-12-30T04:11:56.581Z,7.06
2018-12-30T04:12:56.643Z,7.12
2018-12-30T04:13:56.671Z,7.09
2018-12-30T04:14:56.536Z,7.16
2018-12-30T04:15:56.525Z,7.06
2018-12-30T04:16:56.521Z,7.07
2018-12-30T04:17:56.500Z,7.13
2018-12-30T04:18:56.511Z,7.20
2018-12-30T04:19:56.485Z,6.98
2018-12-30T04:20:56.470Z,6.98
2018-12-30T04:21:56.464Z,7.02
2018-12-30T04:22:56.465Z,6.97
2018-12-30T04:23:56.469Z,6.99
2018-12-30T04:24:56.439Z,7.07
2018-12-30T04:25:56.414Z,7.12
2018-12-30T04:26:56.401Z,7.06
2018-12-30T04:27:56.398Z,7.09
2018-12-30T04:28:56.381Z,7.07
2018-12-30T04:29:56.387Z,7.06
2018-12-30T04:30:56.359Z,7.06
2018-12-30T04:31:56.344Z,7.05
2018-12-30T04:32:56.337Z,7.09
2018-12-30T04:33:56.329Z,7.21
2018-12-30T04:34:56.377Z,7.07
2018-12-30T04:35:56.303Z,7.06
2018-12-30T04:36:56.299Z,7.03
2018-12-30T04:37:56.279Z,7.12
2018-12-30T04:38:56.268Z,7.10
2018-12-30T04:39:56.293Z,7.10
2018-12-30T04:40:56.264Z,7.10
2018-12-30T04:41:56.287Z,7.15
2018-12-30T04:42:56.277Z,7.10
2018-12-30T04:43:56.237Z,7.06
2018-12-30T04:44:56.257Z,7.09
2018-12-30T04:45:56.202Z,7.10
2018-12-30T04:46:56.180Z,6.99
2018-12-30T04:47:56.172Z,7.02
2018-12-30T04:48:56.172Z,7.06
2018-12-30T04:49:56.147Z,7.15
2018-12-30T04:50:56.153Z,6.95
2018-12-30T04:51:56.134Z,7.02
2018-12-30T04:52:56.115Z,6.99
2018-12-30T04:53:56.104Z,7.02
2018-12-30T04:54:56.131Z,7.03
2018-12-30T04:55:56.106Z,7.05
2018-12-30T04:56:56.080Z,7.02
2018-12-30T04:57:56.061Z,6.95
2018-12-30T04:58:56.054Z,7.02
2018-12-30T04:59:56.042Z,6.97
2018-12-30T05:00:56.051Z,6.97
2018-12-30T05:01:56.017Z,6.94
2018-12-30T05:02:56.006Z,6.97
2018-12-30T05:03:55.995Z,6.98
2018-12-30T05:04:55.989Z,6.92
2018-12-30T05:05:55.997Z,7.02
2018-12-30T05:06:55.962Z,6.94
2018-12-30T05:07:55.958Z,7.06
2018-12-30T05:08:55.939Z,6.98
2018-12-30T05:09:55.930Z,6.99
2018-12-30T05:10:56.002Z,7.06
2018-12-30T05:11:55.945Z,6.98
2018-12-30T05:12:55.896Z,6.98
2018-12-30T05:13:55.886Z,6.94
2018-12-30T05:14:55.881Z,7.05
2018-12-30T05:15:55.945Z,6.98
2018-12-30T05:16:55.869Z,6.99
2018-12-30T05:17:55.841Z,6.95
2018-12-30T05:18:55.828Z,6.92
2018-12-30T05:19:55.838Z,6.84
2018-12-30T05:20:55.817Z,7.05
2018-12-30T05:21:55.824Z,6.98
2018-12-30T05:22:55.784Z,6.97
2018-12-30T05:23:55.771Z,7.09
2018-12-30T05:24:55.765Z,6.99
2018-12-30T05:25:55.747Z,6.99
2018-12-30T05:26:55.746Z,7.02
2018-12-30T05:27:55.750Z,6.99
2018-12-30T05:28:55.718Z,7.02
2018-12-30T05:29:55.707Z,7.09
2018-12-30T05:30:55.695Z,7.07
2018-12-30T05:31:55.700Z,6.94
2018-12-30T05:32:55.692Z,6.97
2018-12-30T05:33:55.658Z,7.02
2018-12-30T05:34:55.652Z,7.03
2018-12-30T05:35:55.639Z,7.03
2018-12-30T05:36:55.629Z,6.97
2018-12-30T05:37:55.657Z,6.99
2018-12-30T05:38:55.610Z,6.94
2018-12-30T05:39:55.595Z,7.02
2018-12-30T05:40:55.589Z,6.92
2018-12-30T05:41:55.582Z,6.92
2018-12-30T05:42:55.569Z,6.92
2018-12-30T05:43:55.582Z,7.03
2018-12-30T05:44:55.541Z,6.97
2018-12-30T05:45:55.529Z,6.97
2018-12-30T05:46:55.519Z,6.95
2018-12-30T05:47:55.533Z,6.94
2018-12-30T05:48:55.501Z,6.84
2018-12-30T05:49:55.493Z,6.92
2018-12-30T05:50:55.480Z,6.94
2018-12-30T05:51:55.462Z,6.97
2018-12-30T05:52:55.476Z,6.92
2018-12-30T05:53:55.445Z,6.88
2018-12-30T05:54:55.433Z,6.97
2018-12-30T05:55:55.425Z,6.98
2018-12-30T05:56:55.405Z,6.95
2018-12-30T05:57:55.394Z,6.99
2018-12-30T05:58:55.414Z,6.97
2018-12-30T05:59:55.387Z,6.92
2018-12-30T06:00:55.393Z,6.94
2018-12-30T06:01:55.365Z,6.85
2018-12-30T06:02:55.351Z,6.77
2018-12-30T06:03:55.351Z,6.87
2018-12-30T06:04:55.383Z,6.87
2018-12-30T06:05:55.310Z,6.95
2018-12-30T06:06:55.297Z,6.87
2018-12-30T06:07:55.287Z,6.91
2018-12-30T06:08:55.288Z,6.87
2018-12-30T06:09:55.268Z,6.91
2018-12-30T06:10:55.248Z,6.84
2018-12-30T06:11:55.261Z,6.88
2018-12-30T06:12:55.231Z,6.88
2018-12-30T06:13:55.233Z,6.84
2018-12-30T06:14:55.223Z,6.89
2018-12-30T06:15:55.204Z,6.89
2018-12-30T06:16:55.186Z,6.89
2018-12-30T06:17:55.167Z,6.88
2018-12-30T06:18:55.162Z,6.88
2018-12-30T06:19:55.173Z,6.85
2018-12-30T06:20:55.171Z,6.88
2018-12-30T06:21:55.125Z,6.88
2018-12-30T06:22:55.111Z,6.81
2018-12-30T06:23:55.103Z,6.84
2018-12-30T06:24:55.105Z,6.84
2018-12-30T06:25:55.079Z,6.84
2018-12-30T06:26:55.078Z,6.81
2018-12-30T06:27:55.060Z,6.85
2018-12-30T06:28:55.045Z,6.81
2018-12-30T06:29:55.051Z,6.85
2018-12-30T06:30:55.052Z,6.85
2018-12-30T06:31:55.017Z,6.76
2018-12-30T06:32:55.007Z,6.81
2018-12-30T06:33:55.006Z,6.79
2018-12-30T06:34:54.997Z,6.84
2018-12-30T06:35:54.983Z,6.77
2018-12-30T06:36:54.974Z,6.81
2018-12-30T06:37:54.952Z,6.87
2018-12-30T06:38:54.949Z,6.88
2018-12-30T06:39:54.944Z,6.81
2018-12-30T06:40:54.990Z,6.84
2018-12-30T06:41:54.907Z,6.91
2018-12-30T06:42:54.909Z,6.88
2018-12-30T06:43:54.894Z,6.87
2018-12-30T06:44:54.876Z,6.88
2018-12-30T06:45:54.878Z,6.88
2018-12-30T06:46:54.851Z,6.87
2018-12-30T06:47:54.840Z,6.87
2018-12-30T06:48:54.831Z,6.84
2018-12-30T06:49:54.814Z,6.88
2018-12-30T06:50:54.836Z,6.85
2018-12-30T06:51:54.799Z,6.85
2018-12-30T06:52:57.749Z,6.87
2018-12-30T06:53:54.773Z,6.81
2018-12-30T06:54:54.758Z,6.89
2018-12-30T06:55:54.776Z,6.94
2018-12-30T06:56:54.745Z,6.91
2018-12-30T06:57:54.726Z,6.97
2018-12-30T06:58:54.719Z,6.95
2018-12-30T06:59:54.711Z,6.89
2018-12-30T07:00:54.715Z,6.94
2018-12-30T07:01:54.687Z,6.95
2018-12-30T07:02:54.678Z,6.97
2018-12-30T07:03:54.664Z,6.99
2018-12-30T07:04:54.666Z,6.94
2018-12-30T07:05:54.645Z,6.99
2018-12-30T07:06:54.647Z,7.02
2018-12-30T07:07:54.616Z,7.05
2018-12-30T07:08:54.604Z,7.03
2018-12-30T07:09:54.591Z,7.06
2018-12-30T07:10:54.581Z,7.05
2018-12-30T07:11:54.593Z,7.20
2018-12-30T07:12:54.583Z,7.05
2018-12-30T07:13:54.550Z,7.16
2018-12-30T07:14:54.542Z,7.09
2018-12-30T07:15:54.542Z,7.07
2018-12-30T07:16:54.557Z,7.09
2018-12-30T07:17:54.537Z,7.03
2018-12-30T07:18:54.496Z,7.05
2018-12-30T07:19:54.481Z,7.09
2018-12-30T07:20:54.471Z,7.06
2018-12-30T07:21:54.464Z,7.06
2018-12-30T07:22:54.506Z,7.09
2018-12-30T07:23:54.441Z,7.07
2018-12-30T07:24:54.500Z,7.09
2018-12-30T07:25:54.419Z,7.07
2018-12-30T07:26:54.438Z,7.05
2018-12-30T07:27:54.414Z,7.05
2018-12-30T07:28:54.382Z,7.02
2018-12-30T07:29:54.387Z,7.06
2018-12-30T07:30:54.369Z,7.09
2018-12-30T07:31:54.462Z,7.07
2018-12-30T07:32:54.422Z,7.16
2018-12-30T07:33:54.412Z,7.15
2018-12-30T07:34:54.317Z,7.06
2018-12-30T07:35:54.305Z,7.23
2018-12-30T07:36:54.294Z,7.16
2018-12-30T07:37:54.313Z,7.21
2018-12-30T07:38:54.273Z,7.16
2018-12-30T07:39:54.270Z,7.20
2018-12-30T07:40:54.282Z,7.21
2018-12-30T07:41:54.265Z,7.25
2018-12-30T07:42:54.263Z,7.23
2018-12-30T07:43:54.216Z,7.27
2018-12-30T07:44:54.219Z,7.25
2018-12-30T07:45:54.217Z,7.24
2018-12-30T07:46:54.190Z,7.25
2018-12-30T07:47:54.227Z,7.17
2018-12-30T07:48:54.160Z,7.25
2018-12-30T07:49:54.156Z,7.28
2018-12-30T07:50:54.151Z,7.25
2018-12-30T07:51:54.149Z,7.31
2018-12-30T07:52:54.141Z,7.23
2018-12-30T07:53:54.125Z,7.32
2018-12-30T07:54:54.108Z,7.37
2018-12-30T07:55:54.096Z,7.32
2018-12-30T07:56:54.086Z,7.25
2018-12-30T07:57:54.091Z,7.35
2018-12-30T07:58:54.056Z,7.34
2018-12-30T07:59:54.044Z,7.35
2018-12-30T08:00:54.033Z,7.35
2018-12-30T08:01:54.017Z,7.35
2018-12-30T08:02:54.007Z,7.27
2018-12-30T08:03:54.030Z,7.37
2018-12-30T08:04:53.987Z,7.27
2018-12-30T08:05:53.985Z,7.39
2018-12-30T08:06:53.970Z,7.34
2018-12-30T08:07:53.976Z,7.35
2018-12-30T08:08:53.957Z,7.34
2018-12-30T08:09:53.935Z,7.39
2018-12-30T08:10:53.920Z,7.40
2018-12-30T08:11:53.919Z,7.35
2018-12-30T08:12:53.901Z,7.40
2018-12-30T08:13:53.985Z,7.42
2018-12-30T08:14:53.888Z,7.49
2018-12-30T08:15:53.873Z,7.40
2018-12-30T08:16:53.877Z,7.40
2018-12-30T08:17:53.856Z,7.39
2018-12-30T08:18:53.848Z,7.35
2018-12-30T08:19:53.824Z,7.49
2018-12-30T08:20:53.853Z,7.58
2018-12-30T08:21:53.820Z,7.46
2018-12-30T08:22:53.795Z,7.46
2018-12-30T08:23:53.823Z,7.57
2018-12-30T08:24:53.784Z,7.53
2018-12-30T08:25:53.769Z,7.50
2018-12-30T08:26:53.752Z,7.55
2018-12-30T08:27:53.742Z,7.49
2018-12-30T08:28:53.744Z,7.63
2018-12-30T08:29:53.727Z,7.55
2018-12-30T08:30:53.733Z,7.49
2018-12-30T08:31:53.689Z,7.60
2018-12-30T08:32:53.678Z,7.57
2018-12-30T08:33:53.675Z,7.57
2018-12-30T08:34:53.703Z,7.49
2018-12-30T08:35:53.677Z,7.52
2018-12-30T08:36:53.646Z,7.61
2018-12-30T08:37:53.629Z,7.68
2018-12-30T08:38:53.627Z,7.52
2018-12-30T08:39:53.599Z,7.68
2018-12-30T08:40:53.626Z,7.67
2018-12-30T08:41:53.626Z,7.63
2018-12-30T08:42:53.590Z,7.64
2018-12-30T08:43:53.562Z,7.61
2018-12-30T08:44:53.552Z,7.64
2018-12-30T08:45:53.558Z,7.68
2018-12-30T08:46:53.552Z,7.64
2018-12-30T08:47:53.536Z,7.68
2018-12-30T08:48:53.514Z,7.64
2018-12-30T08:49:53.496Z,7.68
2018-12-30T08:50:53.498Z,7.64
2018-12-30T08:51:53.475Z,7.69
2018-12-30T08:52:53.463Z,7.64
2018-12-30T08:53:53.446Z,7.61
2018-12-30T08:54:53.433Z,7.61
2018-12-30T08:55:53.459Z,7.64
2018-12-30T08:56:53.409Z,7.64
2018-12-30T08:57:53.402Z,7.60
2018-12-30T08:58:53.389Z,7.71
2018-12-30T08:59:53.405Z,7.64
2018-12-30T09:00:53.372Z,7.64
2018-12-30T09:01:53.395Z,7.61
2018-12-30T09:02:53.349Z,7.61
2018-12-30T09:03:53.338Z,7.63
2018-12-30T09:04:53.332Z,7.61
2018-12-30T09:05:53.317Z,7.64
2018-12-30T09:06:53.321Z,7.67
2018-12-30T09:07:53.321Z,7.63
2018-12-30T09:08:53.284Z,7.64
2018-12-30T09:09:53.278Z,7.74
2018-12-30T09:10:53.281Z,7.72
2018-12-30T09:11:53.248Z,7.71
2018-12-30T09:12:53.250Z,7.74
2018-12-30T09:13:53.235Z,7.71
2018-12-30T09:14:53.227Z,7.74
2018-12-30T09:15:53.214Z,7.75
2018-12-30T09:16:53.215Z,7.74
2018-12-30T09:17:53.198Z,7.72
2018-12-30T09:18:53.183Z,7.71
2018-12-30T09:19:53.161Z,7.74
2018-12-30T09:20:53.152Z,7.74
2018-12-30T09:21:53.171Z,7.71
2018-12-30T09:22:53.176Z,7.74
2018-12-30T09:23:53.117Z,7.74
2018-12-30T09:24:53.132Z,7.75
2018-12-30T09:25:53.094Z,7.75
2018-12-30T09:26:53.106Z,7.75
2018-12-30T09:27:53.093Z,7.77
2018-12-30T09:28:53.067Z,7.87
2018-12-30T09:29:53.057Z,7.87
2018-12-30T09:30:53.046Z,7.86
2018-12-30T09:31:53.025Z,7.90
2018-12-30T09:32:53.041Z,7.92
2018-12-30T09:33:53.009Z,7.87
2018-12-30T09:34:52.994Z,7.87
2018-12-30T09:35:52.990Z,7.86
2018-12-30T09:36:53.395Z,7.93
2018-12-30T09:37:53.001Z,7.97
2018-12-30T09:38:52.961Z,7.98
2018-12-30T09:39:52.969Z,8.00
2018-12-30T09:40:52.942Z,7.93
2018-12-30T09:41:52.933Z,7.95
2018-12-30T09:42:52.927Z,7.95
2018-12-30T09:43:52.927Z,7.93
2018-12-30T09:44:52.891Z,7.98
2018-12-30T09:45:52.887Z,7.92
2018-12-30T09:46:52.875Z,7.95
2018-12-30T09:47:52.852Z,7.95
2018-12-30T09:48:52.867Z,8.04
2018-12-30T09:49:52.833Z,8.01
2018-12-30T09:50:52.827Z,8.04
2018-12-30T09:51:52.805Z,8.02
2018-12-30T09:52:52.799Z,8.04
2018-12-30T09:53:52.805Z,7.97
2018-12-30T09:54:52.790Z,8.05
2018-12-30T09:55:52.762Z,8.02
2018-12-30T09:56:52.761Z,8.08
2018-12-30T09:57:52.746Z,8.05
2018-12-30T09:58:52.728Z,8.11
2018-12-30T09:59:52.729Z,8.00
2018-12-30T10:00:52.708Z,8.04
2018-12-30T10:01:52.703Z,8.01
2018-12-30T10:02:52.681Z,8.01
2018-12-30T10:03:52.677Z,8.07
2018-12-30T10:04:52.677Z,8.00
2018-12-30T10:05:52.651Z,8.10
2018-12-30T10:06:52.642Z,8.08
2018-12-30T10:07:52.640Z,8.11
2018-12-30T10:08:52.625Z,8.05
2018-12-30T10:09:52.634Z,8.12
2018-12-30T10:10:52.598Z,8.15
2018-12-30T10:11:52.606Z,8.12
2018-12-30T10:12:52.574Z,8.08
2018-12-30T10:13:52.575Z,8.11
2018-12-30T10:14:52.571Z,8.15
2018-12-30T10:15:52.557Z,8.07
2018-12-30T10:16:52.535Z,8.18
2018-12-30T10:17:52.515Z,8.12
2018-12-30T10:18:52.521Z,8.11
2018-12-30T10:19:52.522Z,8.10
2018-12-30T10:20:52.511Z,8.11
2018-12-30T10:21:52.477Z,8.11
2018-12-30T10:22:58.810Z,8.11
2018-12-30T10:23:53.455Z,8.15
2018-12-30T10:24:52.462Z,8.10
2018-12-30T10:25:52.446Z,8.15
2018-12-30T10:26:52.415Z,8.10
2018-12-30T10:27:52.410Z,8.16
2018-12-30T10:28:52.405Z,8.15
2018-12-30T10:29:52.384Z,8.15
2018-12-30T10:30:52.392Z,8.11
2018-12-30T10:31:52.365Z,8.18
2018-12-30T10:32:52.348Z,8.08
2018-12-30T10:33:52.343Z,8.10
2018-12-30T10:34:52.331Z,8.11
2018-12-30T10:35:52.346Z,8.18
2018-12-30T10:36:52.308Z,8.15
2018-12-30T10:37:52.291Z,8.19
2018-12-30T10:38:52.281Z,8.07
2018-12-30T10:39:52.274Z,8.18
2018-12-30T10:40:52.311Z,8.16
2018-12-30T10:41:52.268Z,8.20
2018-12-30T10:42:52.242Z,8.25
2018-12-30T10:43:52.237Z,8.18
2018-12-30T10:44:52.219Z,8.23
2018-12-30T10:45:52.207Z,8.29
2018-12-30T10:46:52.211Z,8.19
2018-12-30T10:47:52.189Z,8.19
2018-12-30T10:48:52.170Z,8.26
2018-12-30T10:49:52.176Z,8.23
2018-12-30T10:50:52.147Z,8.20
2018-12-30T10:51:52.163Z,8.26
2018-12-30T10:52:52.125Z,8.19
2018-12-30T10:53:52.117Z,8.26
2018-12-30T10:54:52.109Z,8.23
2018-12-30T10:55:52.108Z,8.23
2018-12-30T10:56:52.125Z,8.34
2018-12-30T10:57:52.074Z,8.25
2018-12-30T10:58:52.059Z,8.29
2018-12-30T10:59:52.057Z,8.33
2018-12-30T11:00:52.043Z,8.36
2018-12-30T11:01:52.062Z,8.29
2018-12-30T11:02:52.028Z,8.33
2018-12-30T11:03:52.007Z,8.37
2018-12-30T11:04:52.010Z,8.36
2018-12-30T11:05:52.008Z,8.36
2018-12-30T11:06:51.997Z,8.37
2018-12-30T11:07:51.965Z,8.44
2018-12-30T11:08:51.950Z,8.34
2018-12-30T11:09:51.942Z,8.47
2018-12-30T11:10:51.934Z,8.38
2018-12-30T11:11:51.938Z,8.36
2018-12-30T11:12:51.923Z,8.44
2018-12-30T11:13:51.894Z,8.44
2018-12-30T11:14:51.888Z,8.47
2018-12-30T11:15:51.882Z,8.38
2018-12-30T11:16:51.897Z,8.43
2018-12-30T11:17:51.857Z,8.47
2018-12-30T11:18:51.854Z,8.44
2018-12-30T11:19:51.849Z,8.30
2018-12-30T11:20:51.827Z,8.40
2018-12-30T11:21:51.816Z,8.38
2018-12-30T11:22:51.817Z,8.38
2018-12-30T11:23:51.789Z,8.37
2018-12-30T11:24:51.789Z,8.30
2018-12-30T11:25:51.761Z,8.33
2018-12-30T11:26:51.754Z,8.44
2018-12-30T11:27:51.777Z,8.37
2018-12-30T11:28:51.734Z,8.33
2018-12-30T11:29:51.731Z,8.30
2018-12-30T11:30:51.712Z,8.37
2018-12-30T11:31:51.694Z,8.33
2018-12-30T11:32:51.682Z,8.40
2018-12-30T11:33:51.696Z,8.37
2018-12-30T11:34:51.665Z,8.34
2018-12-30T11:35:51.650Z,8.38
2018-12-30T11:36:51.638Z,8.43
2018-12-30T11:37:51.641Z,8.37
2018-12-30T11:38:51.635Z,8.33
2018-12-30T11:39:51.616Z,8.40
2018-12-30T11:40:51.610Z,8.34
2018-12-30T11:41:51.589Z,8.34
2018-12-30T11:42:51.575Z,8.33
2018-12-30T11:43:51.576Z,8.37
2018-12-30T11:44:51.548Z,8.33
2018-12-30T11:45:51.547Z,8.41
2018-12-30T11:46:51.538Z,8.41
2018-12-30T11:47:51.520Z,8.41
2018-12-30T11:48:51.538Z,8.37
2018-12-30T11:49:51.492Z,8.38
2018-12-30T11:50:51.482Z,8.38
2018-12-30T11:51:51.473Z,8.30
2018-12-30T11:52:51.481Z,8.33
2018-12-30T11:53:51.448Z,8.37
2018-12-30T11:54:51.437Z,8.30
2018-12-30T11:55:51.428Z,8.43
2018-12-30T11:56:51.426Z,8.44
2018-12-30T11:57:51.438Z,8.43
2018-12-30T11:58:51.407Z,8.47
2018-12-30T11:59:51.402Z,8.41
2018-12-30T12:00:51.382Z,8.40
2018-12-30T12:01:51.422Z,8.44
2018-12-30T12:02:51.352Z,8.40
2018-12-30T12:03:51.376Z,8.38
2018-12-30T12:04:51.362Z,8.36
2018-12-30T12:05:51.321Z,8.44
2018-12-30T12:06:51.305Z,8.44
2018-12-30T12:07:51.294Z,8.44
2018-12-30T12:08:51.285Z,8.44
2018-12-30T12:09:51.292Z,8.37
2018-12-30T12:10:51.270Z,8.44
2018-12-30T12:11:51.253Z,8.43
2018-12-30T12:12:51.255Z,8.43
2018-12-30T12:13:51.259Z,8.45
2018-12-30T12:14:51.244Z,8.44
2018-12-30T12:15:51.207Z,8.41
2018-12-30T12:16:51.203Z,8.48
2018-12-30T12:17:51.205Z,8.43
2018-12-30T12:18:51.180Z,8.43
2018-12-30T12:19:51.163Z,8.44
2018-12-30T12:20:51.186Z,8.30
2018-12-30T12:21:51.152Z,8.34
2018-12-30T12:22:51.147Z,8.38
2018-12-30T12:23:51.174Z,8.33
2018-12-30T12:24:51.150Z,8.33
2018-12-30T12:25:51.103Z,8.40
2018-12-30T12:26:51.102Z,8.34
2018-12-30T12:27:51.075Z,8.33
2018-12-30T12:28:51.075Z,8.36
2018-12-30T12:29:51.079Z,8.29
2018-12-30T12:30:51.078Z,8.34
2018-12-30T12:31:51.046Z,8.37
2018-12-30T12:32:51.049Z,8.33
2018-12-30T12:33:51.014Z,8.28
2018-12-30T12:34:51.023Z,8.33
2018-12-30T12:35:51.031Z,8.29
2018-12-30T12:36:50.974Z,8.33
2018-12-30T12:37:50.984Z,8.23
2018-12-30T12:38:50.954Z,8.30
2018-12-30T12:39:51.021Z,8.34
2018-12-30T12:40:50.959Z,8.28
2018-12-30T12:41:50.924Z,8.23
2018-12-30T12:42:50.933Z,8.34
2018-12-30T12:43:50.905Z,8.23
2018-12-30T12:44:50.887Z,8.33
2018-12-30T12:45:50.905Z,8.30
2018-12-30T12:46:50.880Z,8.34
2018-12-30T12:47:50.862Z,8.22
2018-12-30T12:48:50.848Z,8.22
2018-12-30T12:49:50.846Z,8.37
2018-12-30T12:50:50.851Z,8.30
2018-12-30T12:51:50.828Z,8.33
2018-12-30T12:52:50.836Z,8.29
2018-12-30T12:53:50.789Z,8.33
2018-12-30T12:54:50.806Z,8.36
2018-12-30T12:55:50.906Z,8.34
2018-12-30T12:56:50.760Z,8.22
2018-12-30T12:57:50.756Z,8.28
2018-12-30T12:58:50.753Z,8.33
2018-12-30T12:59:50.728Z,8.26
2018-12-30T13:00:50.713Z,8.20
2018-12-30T13:01:50.719Z,8.25
2018-12-30T13:02:50.723Z,8.22
2018-12-30T13:03:50.698Z,8.20
2018-12-30T13:04:50.708Z,8.29
2018-12-30T13:05:50.677Z,8.23
2018-12-30T13:06:50.649Z,8.22
2018-12-30T13:07:50.643Z,8.23
2018-12-30T13:08:50.638Z,8.26
2018-12-30T13:09:50.630Z,8.19
2018-12-30T13:10:50.599Z,8.16
2018-12-30T13:11:50.619Z,8.19
2018-12-30T13:12:50.596Z,8.25
2018-12-30T13:13:50.577Z,8.16
2018-12-30T13:14:50.572Z,8.23
2018-12-30T13:15:50.569Z,8.25
2018-12-30T13:16:50.562Z,8.26
2018-12-30T13:17:50.558Z,8.28
2018-12-30T13:18:50.517Z,8.22